In Rescue
 
Open Full Screen Window  High Contrast Mode
Wind Gusting 22 knots
12
February 24, 2019 12:46 AM EST
Weather Information
Wind Direction
  180 °
Wind Speed
  12 kt (14 mph)
Wind Gust
  22 kt (25 mph)
Altimeter
29.54 in
Visibility
3 SM
Temperature
11° C
52° F
Dewpoint
11° C
52° F
Humidity
100%
1hr Rain Fall
00.02 in.
24hr Rain Fall
00.05 in.
Sky Condition
Overcast @ 500 ft
IFR

METAR KMRT 240546Z AUTO 18012G22KT 3SM OVC005 11/11 A2954 RMK AO2 P0002 60005 T01110107 10111 20076 401111008

FAA Disclaimer: The data displayed is for advisory purposes only and is not to be used for flight planning or operations.